Time;durP1;ratioP1;P1;durP2;ratioP2;P2;SDS_P1;SDS_P2;PMS_P1;PMS_P2;Temp;Humidity;BMP_temperature;BMP_pressure;BME280_temperature;BME280_humidity;BME280_pressure;Samples;Min_cycle;Max_cycle;Signal;HPM_P1;HPM_P2
2021/04/27 00:01:02;;;;;;;2.70;2.27;;;;;;;;;;5074955;28;20409;-72
2021/04/27 00:03:28;;;;;;;3.40;2.57;;;;;;;;;;5075155;28;20472;-73
2021/04/27 00:08:57;;;;;;;3.20;2.70;;;;;;;;;;5074852;28;20452;-72
2021/04/27 00:11:23;;;;;;;5.30;2.53;;;;;;;;;;5074732;28;20864;-77
2021/04/27 00:13:49;;;;;;;7.20;2.80;;;;;;;;;;5075136;28;20823;-73
2021/04/27 00:16:15;;;;;;;3.70;2.40;;;;;;;;;;5075015;28;20441;-71
2021/04/27 00:18:41;;;;;;;3.80;2.55;;;;;;;;;;5074705;28;20906;-71
2021/04/27 00:21:07;;;;;;;3.67;2.40;;;;;;;;;;5074704;28;20261;-73
2021/04/27 00:23:33;;;;;;;4.43;2.60;;;;;;;;;;5074656;28;20824;-72
2021/04/27 00:26:00;;;;;;;3.30;2.63;;;;;;;;;;5074716;28;20672;-73
2021/04/27 00:28:26;;;;;;;5.17;2.63;;;;;;;;;;5075073;28;20891;-71
2021/04/27 00:30:52;;;;;;;3.03;2.80;;;;;;;;;;5074969;28;20432;-71
2021/04/27 00:33:18;;;;;;;3.10;2.37;;;;;;;;;;5073285;28;20436;-73
2021/04/27 00:38:48;;;;;;;3.73;2.70;;;;;;;;;;5074496;28;20491;-76
2021/04/27 00:41:14;;;;;;;2.80;2.60;;;;;;;;;;5074935;28;20417;-76
2021/04/27 00:43:40;;;;;;;4.32;2.50;;;;;;;;;;5074364;28;20516;-77
2021/04/27 00:46:07;;;;;;;2.80;2.40;;;;;;;;;;5074597;28;20258;-71
2021/04/27 00:48:33;;;;;;;2.97;2.78;;;;;;;;;;5074155;28;20164;-72
2021/04/27 00:54:04;;;;;;;3.23;2.70;;;;;;;;;;5073959;28;20421;-72
2021/04/27 00:56:31;;;;;;;2.65;2.45;;;;;;;;;;5074048;28;20414;-71
2021/04/27 00:58:57;;;;;;;2.95;2.55;;;;;;;;;;5073843;28;20694;-72
2021/04/27 01:01:23;;;;;;;3.35;2.65;;;;;;;;;;5074145;28;20197;-72
2021/04/27 01:03:49;;;;;;;7.13;3.60;;;;;;;;;;5072418;28;20595;-70
2021/04/27 01:09:25;;;;;;;5.13;3.67;;;;;;;;;;5073770;28;20771;-73
2021/04/27 01:11:58;;;;;;;4.93;3.72;;;;;;;;;;5073895;28;20597;-72
2021/04/27 01:14:35;;;;;;;8.50;3.05;;;;;;;;;;5073904;28;20254;-72
2021/04/27 01:17:07;;;;;;;5.60;3.05;;;;;;;;;;5074009;28;20181;-71
2021/04/27 01:19:41;;;;;;;6.20;3.35;;;;;;;;;;5073957;28;20168;-71
2021/04/27 01:22:10;;;;;;;3.70;3.10;;;;;;;;;;5073350;28;20298;-73
2021/04/27 01:24:51;;;;;;;4.93;2.63;;;;;;;;;;5072184;28;20186;-72
2021/04/27 01:27:18;;;;;;;4.80;3.15;;;;;;;;;;5073019;28;20178;-72
2021/04/27 01:29:45;;;;;;;4.13;2.92;;;;;;;;;;5073841;28;20171;-72
2021/04/27 01:32:11;;;;;;;5.78;2.88;;;;;;;;;;5073223;28;20173;-70
2021/04/27 01:34:39;;;;;;;2.40;2.20;;;;;;;;;;5072627;28;20614;-70
2021/04/27 01:37:09;;;;;;;2.80;2.60;;;;;;;;;;5073139;28;20628;-72
2021/04/27 01:39:36;;;;;;;2.35;2.15;;;;;;;;;;5073261;28;20168;-71
2021/04/27 01:42:03;;;;;;;3.65;2.35;;;;;;;;;;5073194;28;20207;-71
2021/04/27 01:44:30;;;;;;;4.60;2.97;;;;;;;;;;5073143;28;20168;-72
2021/04/27 01:46:57;;;;;;;2.88;2.65;;;;;;;;;;5073462;28;20531;-71
2021/04/27 01:55:12;;;;;;;2.55;2.30;;;;;;;;;;5073298;28;20178;-76
2021/04/27 01:57:38;;;;;;;5.88;2.90;;;;;;;;;;5073303;28;20200;-77
2021/04/27 02:00:06;;;;;;;3.17;2.30;;;;;;;;;;5073141;28;20167;-72
2021/04/27 02:02:33;;;;;;;5.38;2.92;;;;;;;;;;5072597;28;20225;-72
2021/04/27 02:04:59;;;;;;;3.63;2.83;;;;;;;;;;5073005;28;20178;-73
2021/04/27 02:07:25;;;;;;;6.22;3.40;;;;;;;;;;5072975;28;20168;-71
2021/04/27 02:09:51;;;;;;;3.40;3.00;;;;;;;;;;5073331;28;20271;-72
2021/04/27 02:12:18;;;;;;;4.15;2.22;;;;;;;;;;5072633;28;20217;-72
2021/04/27 02:14:44;;;;;;;5.85;2.97;;;;;;;;;;5072828;28;20257;-71
2021/04/27 02:17:21;;;;;;;7.75;3.78;;;;;;;;;;5072876;28;20167;-71
2021/04/27 02:19:48;;;;;;;4.00;2.72;;;;;;;;;;5071578;28;20186;-75
2021/04/27 02:22:14;;;;;;;5.68;3.03;;;;;;;;;;5072754;28;20237;-70
2021/04/27 02:24:40;;;;;;;8.77;3.20;;;;;;;;;;5072905;28;20167;-70
2021/04/27 02:27:10;;;;;;;5.93;3.13;;;;;;;;;;5072767;28;20190;-70
2021/04/27 02:29:36;;;;;;;4.30;2.75;;;;;;;;;;5072696;28;20170;-70
2021/04/27 02:32:03;;;;;;;4.35;2.50;;;;;;;;;;5072869;28;20178;-70
2021/04/27 02:34:29;;;;;;;4.15;2.33;;;;;;;;;;5072809;28;20174;-70
2021/04/27 02:39:58;;;;;;;3.20;2.88;;;;;;;;;;5073045;28;20173;-73
2021/04/27 02:42:25;;;;;;;3.80;2.80;;;;;;;;;;5072761;28;20210;-72
2021/04/27 02:44:52;;;;;;;3.58;3.05;;;;;;;;;;5074199;28;20411;-72
2021/04/27 02:47:18;;;;;;;7.68;2.55;;;;;;;;;;5076743;28;20178;-72
2021/04/27 02:49:44;;;;;;;2.90;2.20;;;;;;;;;;5076663;28;20194;-72
2021/04/27 02:55:13;;;;;;;2.90;2.40;;;;;;;;;;5076508;28;20600;-72
2021/04/27 02:57:39;;;;;;;4.95;3.15;;;;;;;;;;5076549;28;20262;-72
2021/04/27 03:00:06;;;;;;;4.32;2.72;;;;;;;;;;5076365;28;20595;-72
2021/04/27 03:02:32;;;;;;;2.60;2.40;;;;;;;;;;5076257;28;20218;-70
2021/04/27 03:04:58;;;;;;;3.50;2.30;;;;;;;;;;5076577;28;20178;-71
2021/04/27 03:10:28;;;;;;;2.15;1.90;;;;;;;;;;5076012;28;20464;-73
2021/04/27 03:12:54;;;;;;;3.38;2.60;;;;;;;;;;5076123;28;20182;-70
2021/04/27 03:15:20;;;;;;;2.60;2.40;;;;;;;;;;5076100;28;20209;-71
2021/04/27 03:17:46;;;;;;;5.70;2.60;;;;;;;;;;5076029;28;20178;-74
2021/04/27 03:20:13;;;;;;;3.17;2.50;;;;;;;;;;5075980;28;20170;-71
2021/04/27 03:22:40;;;;;;;4.38;2.30;;;;;;;;;;5075492;28;20253;-71
2021/04/27 03:25:06;;;;;;;2.63;2.40;;;;;;;;;;5075516;28;20175;-71
2021/04/27 03:27:32;;;;;;;9.45;3.58;;;;;;;;;;5075196;28;20171;-71
2021/04/27 03:29:59;;;;;;;3.92;2.70;;;;;;;;;;5075277;28;20207;-73
2021/04/27 03:32:25;;;;;;;3.97;3.05;;;;;;;;;;5075297;28;20602;-74
2021/04/27 03:34:51;;;;;;;4.65;2.38;;;;;;;;;;5075382;28;20195;-71
2021/04/27 03:40:21;;;;;;;4.72;3.38;;;;;;;;;;5075838;28;20182;-75
2021/04/27 03:42:47;;;;;;;5.55;3.45;;;;;;;;;;5075558;28;20260;-75
2021/04/27 03:45:15;;;;;;;16.60;3.33;;;;;;;;;;5075520;28;20180;-76
2021/04/27 03:47:41;;;;;;;5.00;3.13;;;;;;;;;;5075466;28;20175;-76
2021/04/27 03:50:09;;;;;;;4.10;2.38;;;;;;;;;;5076486;28;20175;-74
2021/04/27 03:55:38;;;;;;;5.28;2.15;;;;;;;;;;5075003;28;20635;-76
2021/04/27 03:58:07;;;;;;;3.63;2.78;;;;;;;;;;5074651;28;20170;-73
2021/04/27 04:00:33;;;;;;;4.30;2.70;;;;;;;;;;5074794;28;20259;-74
2021/04/27 04:02:59;;;;;;;5.55;2.72;;;;;;;;;;5074037;28;20202;-72
2021/04/27 04:05:25;;;;;;;3.33;2.70;;;;;;;;;;5074575;28;20628;-75
2021/04/27 04:10:55;;;;;;;4.15;2.70;;;;;;;;;;5074453;28;20615;-76
2021/04/27 04:13:21;;;;;;;5.03;2.63;;;;;;;;;;5074328;28;20183;-70
2021/04/27 04:15:47;;;;;;;4.83;3.47;;;;;;;;;;5074346;28;20424;-76
2021/04/27 04:18:13;;;;;;;3.53;2.60;;;;;;;;;;5074208;28;20420;-77
2021/04/27 04:26:28;;;;;;;3.33;3.03;;;;;;;;;;5074256;28;20219;-74
2021/04/27 04:28:54;;;;;;;4.20;2.60;;;;;;;;;;5074343;28;20166;-75
2021/04/27 04:31:20;;;;;;;12.50;3.10;;;;;;;;;;5074306;28;20636;-76
2021/04/27 04:33:46;;;;;;;4.70;2.93;;;;;;;;;;5074265;28;20548;-75
2021/04/27 04:36:12;;;;;;;4.03;2.92;;;;;;;;;;5074531;28;21008;-76
2021/04/27 04:38:38;;;;;;;12.02;3.28;;;;;;;;;;5074115;28;20209;-71
2021/04/27 04:41:04;;;;;;;4.70;3.33;;;;;;;;;;5074046;28;20171;-71
2021/04/27 04:43:30;;;;;;;4.70;3.53;;;;;;;;;;5074170;28;20750;-72
2021/04/27 04:45:56;;;;;;;4.22;3.33;;;;;;;;;;5073714;28;20652;-70
2021/04/27 04:48:22;;;;;;;7.60;3.33;;;;;;;;;;5073967;28;20167;-70
2021/04/27 04:50:48;;;;;;;5.68;3.42;;;;;;;;;;5073764;28;20178;-72
2021/04/27 04:56:17;;;;;;;7.22;3.22;;;;;;;;;;5074440;28;20186;-76
2021/04/27 04:58:43;;;;;;;4.63;3.35;;;;;;;;;;5074187;28;20621;-70
2021/04/27 05:01:10;;;;;;;4.70;3.13;;;;;;;;;;5074057;28;20178;-70
2021/04/27 05:03:36;;;;;;;7.82;3.65;;;;;;;;;;5073471;28;20529;-72
2021/04/27 05:06:02;;;;;;;5.57;3.78;;;;;;;;;;5073303;28;20163;-72
2021/04/27 05:08:34;;;;;;;3.35;3.05;;;;;;;;;;5073081;28;20174;-72
2021/04/27 05:11:00;;;;;;;11.37;3.03;;;;;;;;;;5073418;28;20234;-71
2021/04/27 05:13:26;;;;;;;7.80;3.17;;;;;;;;;;5073178;28;20457;-71
2021/04/27 05:15:52;;;;;;;9.20;4.00;;;;;;;;;;5073228;28;20192;-72
2021/04/27 05:18:18;;;;;;;4.18;3.10;;;;;;;;;;5073241;28;20414;-72
2021/04/27 05:20:45;;;;;;;4.82;3.45;;;;;;;;;;5073354;28;20530;-73
2021/04/27 05:26:15;;;;;;;4.28;3.30;;;;;;;;;;5073654;28;20277;-71
2021/04/27 05:28:41;;;;;;;3.33;2.80;;;;;;;;;;5072383;28;20206;-72
2021/04/27 05:31:07;;;;;;;4.77;3.13;;;;;;;;;;5073802;28;20816;-74
2021/04/27 05:33:33;;;;;;;6.67;3.13;;;;;;;;;;5073621;28;20931;-76
2021/04/27 05:35:59;;;;;;;3.80;3.10;;;;;;;;;;5073380;28;20497;-75
2021/04/27 05:41:28;;;;;;;6.33;3.00;;;;;;;;;;5073249;28;20958;-72
2021/04/27 05:43:54;;;;;;;6.17;3.70;;;;;;;;;;5073528;28;20461;-73
2021/04/27 05:46:20;;;;;;;4.93;3.13;;;;;;;;;;5073398;28;20940;-73
2021/04/27 05:48:46;;;;;;;5.00;3.40;;;;;;;;;;5073221;28;20896;-72
2021/04/27 05:51:12;;;;;;;3.63;3.33;;;;;;;;;;5073132;28;20402;-74
2021/04/27 05:56:42;;;;;;;5.60;3.20;;;;;;;;;;5071694;28;20988;-70
2021/04/27 05:59:08;;;;;;;4.47;3.60;;;;;;;;;;5071493;28;20889;-70
2021/04/27 06:01:35;;;;;;;3.50;3.20;;;;;;;;;;5071041;28;20466;-71
2021/04/27 06:04:01;;;;;;;4.37;3.50;;;;;;;;;;5069828;28;20539;-70
2021/04/27 06:06:27;;;;;;;4.37;2.87;;;;;;;;;;5071342;28;20455;-71
2021/04/27 06:11:58;;;;;;;8.33;4.07;;;;;;;;;;5070702;28;20868;-71
2021/04/27 06:14:24;;;;;;;14.03;4.47;;;;;;;;;;5071476;28;20437;-72
2021/04/27 06:16:50;;;;;;;4.33;3.30;;;;;;;;;;5071355;28;20937;-71
2021/04/27 06:19:16;;;;;;;9.50;3.73;;;;;;;;;;5070971;28;20412;-72
2021/04/27 06:21:43;;;;;;;5.90;3.93;;;;;;;;;;5071455;28;20425;-71
2021/04/27 06:24:09;;;;;;;6.23;4.10;;;;;;;;;;5070667;28;20824;-71
2021/04/27 06:26:35;;;;;;;3.93;3.57;;;;;;;;;;5072021;28;20413;-70
2021/04/27 06:29:01;;;;;;;4.47;4.00;;;;;;;;;;5070588;28;20524;-71
2021/04/27 06:31:27;;;;;;;4.13;3.70;;;;;;;;;;5072118;28;20528;-72
2021/04/27 06:33:53;;;;;;;4.83;3.93;;;;;;;;;;5072099;28;20419;-72
2021/04/27 06:36:19;;;;;;;7.27;4.30;;;;;;;;;;5070852;28;20491;-76
2021/04/27 06:41:48;;;;;;;13.37;4.30;;;;;;;;;;5071807;28;20413;-72
2021/04/27 06:44:14;;;;;;;6.07;4.83;;;;;;;;;;5072036;28;20426;-71
2021/04/27 06:46:40;;;;;;;6.30;4.00;;;;;;;;;;5072084;28;20419;-72
2021/04/27 06:49:06;;;;;;;7.53;5.00;;;;;;;;;;5071728;28;20422;-74
2021/04/27 06:51:32;;;;;;;5.70;3.93;;;;;;;;;;5072258;28;20501;-72
2021/04/27 06:57:02;;;;;;;5.73;4.23;;;;;;;;;;5072118;28;20505;-76
2021/04/27 06:59:31;;;;;;;5.97;4.20;;;;;;;;;;5072363;28;20838;-73
2021/04/27 07:02:01;;;;;;;5.97;4.37;;;;;;;;;;5071998;28;20449;-71
2021/04/27 07:04:27;;;;;;;5.47;3.80;;;;;;;;;;5072761;28;20727;-72
2021/04/27 07:06:53;;;;;;;4.03;3.73;;;;;;;;;;5071992;28;20402;-72
2021/04/27 07:12:23;;;;;;;6.23;4.50;;;;;;;;;;5072073;28;20500;-72
2021/04/27 07:14:49;;;;;;;7.03;5.10;;;;;;;;;;5072033;28;20791;-71
2021/04/27 07:17:15;;;;;;;8.80;5.67;;;;;;;;;;5072266;28;20892;-72
2021/04/27 07:19:41;;;;;;;5.63;4.50;;;;;;;;;;5072832;28;20417;-73
2021/04/27 07:22:07;;;;;;;6.37;5.10;;;;;;;;;;5072751;28;20811;-75
2021/04/27 07:27:36;;;;;;;5.10;4.60;;;;;;;;;;5072021;28;20918;-72
2021/04/27 07:30:04;;;;;;;7.50;5.27;;;;;;;;;;5072092;28;20432;-73
2021/04/27 07:32:30;;;;;;;5.10;4.60;;;;;;;;;;5074393;28;20425;-77
2021/04/27 07:34:56;;;;;;;4.30;3.90;;;;;;;;;;5075657;28;20424;-73
2021/04/27 07:37:22;;;;;;;4.63;4.17;;;;;;;;;;5075314;28;20425;-75
2021/04/27 07:42:51;;;;;;;5.13;4.37;;;;;;;;;;5074270;28;20521;-81
2021/04/27 07:45:17;;;;;;;8.73;5.10;;;;;;;;;;5074435;28;20421;-79
2021/04/27 07:47:43;;;;;;;7.70;5.50;;;;;;;;;;5074338;28;20472;-77
2021/04/27 07:50:10;;;;;;;8.40;6.33;;;;;;;;;;5074861;28;20418;-80
2021/04/27 07:52:38;;;;;;;5.37;4.83;;;;;;;;;;5074488;28;20414;-76
2021/04/27 07:58:07;;;;;;;5.47;5.00;;;;;;;;;;5074311;28;20409;-79
2021/04/27 08:00:33;;;;;;;6.00;4.83;;;;;;;;;;5074272;28;20414;-82
2021/04/27 08:02:59;;;;;;;6.50;5.20;;;;;;;;;;5074402;28;20971;-81
2021/04/27 08:05:26;;;;;;;5.87;5.10;;;;;;;;;;5074635;28;20406;-80
2021/04/27 08:07:52;;;;;;;6.63;5.73;;;;;;;;;;5074207;28;20415;-82
2021/04/27 08:10:21;;;;;;;10.00;6.10;;;;;;;;;;5074348;28;20410;-82
2021/04/27 08:12:48;;;;;;;9.70;5.30;;;;;;;;;;5074570;28;20768;-83
2021/04/27 08:15:15;;;;;;;8.97;5.53;;;;;;;;;;5074660;28;20410;-85
2021/04/27 08:17:41;;;;;;;8.30;5.17;;;;;;;;;;5073225;28;20456;-77
2021/04/27 08:20:08;;;;;;;8.70;5.27;;;;;;;;;;5074349;28;20413;-82
2021/04/27 08:22:35;;;;;;;6.67;5.57;;;;;;;;;;5074070;28;20575;-80
2021/04/27 08:28:04;;;;;;;6.63;5.67;;;;;;;;;;5079025;28;20956;-81
2021/04/27 08:30:33;;;;;;;6.70;6.10;;;;;;;;;;5075110;28;20422;-82
2021/04/27 08:32:59;;;;;;;7.87;5.20;;;;;;;;;;5072971;28;20978;-76
2021/04/27 08:35:25;;;;;;;6.13;5.50;;;;;;;;;;5073963;28;20414;-79
2021/04/27 08:37:51;;;;;;;6.33;5.00;;;;;;;;;;5073635;28;20687;-80
2021/04/27 08:43:21;;;;;;;6.00;5.50;;;;;;;;;;5073257;28;20472;-81
2021/04/27 08:45:47;;;;;;;6.90;6.20;;;;;;;;;;5073720;28;20836;-81
2021/04/27 08:48:14;;;;;;;6.17;5.67;;;;;;;;;;5073477;28;20429;-81
2021/04/27 08:50:41;;;;;;;7.40;5.60;;;;;;;;;;5073624;28;20407;-80
2021/04/27 08:53:07;;;;;;;8.30;5.90;;;;;;;;;;5073435;28;20443;-83
2021/04/27 08:55:37;;;;;;;7.07;5.80;;;;;;;;;;5072491;28;20430;-77
2021/04/27 08:58:09;;;;;;;7.30;6.13;;;;;;;;;;5073982;28;20430;-75
2021/04/27 09:00:36;;;;;;;9.10;6.10;;;;;;;;;;5074279;28;20440;-80
2021/04/27 09:03:03;;;;;;;6.27;5.67;;;;;;;;;;5074412;28;20555;-79
2021/04/27 09:05:30;;;;;;;6.93;5.60;;;;;;;;;;5072731;28;20785;-78
2021/04/27 09:07:58;;;;;;;7.03;6.40;;;;;;;;;;5073515;28;20410;-76
2021/04/27 09:13:27;;;;;;;8.70;5.50;;;;;;;;;;5075160;28;20766;-79
2021/04/27 09:15:54;;;;;;;9.10;6.17;;;;;;;;;;5073340;28;20398;-80
2021/04/27 09:18:22;;;;;;;10.33;6.07;;;;;;;;;;5072696;28;21011;-78
2021/04/27 09:20:52;;;;;;;8.13;6.40;;;;;;;;;;5069952;28;20844;-76
2021/04/27 09:23:18;;;;;;;12.60;5.90;;;;;;;;;;5071427;28;20473;-78
2021/04/27 09:26:04;;;;;;;7.40;6.70;;;;;;;;;;5071844;28;20432;-80
2021/04/27 09:28:34;;;;;;;7.97;6.80;;;;;;;;;;5071690;28;20905;-75
2021/04/27 09:31:00;;;;;;;7.23;6.23;;;;;;;;;;5072136;28;20402;-74
2021/04/27 09:33:27;;;;;;;7.17;6.20;;;;;;;;;;5072480;28;20437;-74
2021/04/27 09:35:53;;;;;;;7.67;6.83;;;;;;;;;;5072177;28;20452;-78
2021/04/27 09:38:26;;;;;;;10.93;7.10;;;;;;;;;;5071467;28;20973;-75
2021/04/27 09:40:53;;;;;;;8.93;6.87;;;;;;;;;;5070866;28;20414;-75
2021/04/27 09:43:20;;;;;;;10.50;7.30;;;;;;;;;;5070970;28;20488;-75
2021/04/27 09:45:47;;;;;;;8.07;6.90;;;;;;;;;;5071920;28;20413;-79
2021/04/27 09:48:13;;;;;;;10.47;6.83;;;;;;;;;;5071297;28;20425;-80
2021/04/27 09:50:40;;;;;;;8.30;6.27;;;;;;;;;;5071239;28;20414;-77
2021/04/27 09:53:06;;;;;;;7.23;5.90;;;;;;;;;;5069955;28;20973;-82
2021/04/27 09:58:36;;;;;;;9.07;6.63;;;;;;;;;;5071393;28;20424;-76
2021/04/27 10:01:05;;;;;;;8.47;6.60;;;;;;;;;;5073994;28;20403;-77
2021/04/27 10:03:31;;;;;;;7.20;6.50;;;;;;;;;;5073167;28;20461;-74
2021/04/27 10:05:57;;;;;;;8.50;7.57;;;;;;;;;;5072066;28;20402;-82
2021/04/27 10:08:26;;;;;;;9.10;6.10;;;;;;;;;;5071944;28;20398;-75
2021/04/27 10:10:52;;;;;;;8.83;6.47;;;;;;;;;;5071709;28;20465;-81
2021/04/27 10:13:18;;;;;;;12.87;7.20;;;;;;;;;;5071937;28;20505;-78
2021/04/27 10:15:45;;;;;;;12.10;8.20;;;;;;;;;;5071377;28;20617;-77
2021/04/27 10:18:11;;;;;;;10.90;7.43;;;;;;;;;;5071899;28;20410;-76
2021/04/27 10:20:38;;;;;;;8.03;7.23;;;;;;;;;;5073357;28;20454;-79
2021/04/27 10:23:07;;;;;;;11.03;7.00;;;;;;;;;;5072140;28;20491;-77
2021/04/27 10:28:55;;;;;;;7.07;6.10;;;;;;;;;;5070877;28;20405;-78
2021/04/27 10:31:21;;;;;;;7.63;6.83;;;;;;;;;;5070965;28;20411;-74
2021/04/27 10:33:59;;;;;;;9.03;7.63;;;;;;;;;;5071755;28;20468;-76
2021/04/27 10:36:29;;;;;;;10.13;7.43;;;;;;;;;;5069807;28;20843;-75
2021/04/27 10:38:56;;;;;;;10.70;6.87;;;;;;;;;;5070617;28;20428;-78
2021/04/27 10:41:41;;;;;;;8.57;7.20;;;;;;;;;;5071220;28;20497;-77
2021/04/27 10:44:07;;;;;;;8.87;6.93;;;;;;;;;;5070914;28;20968;-78
2021/04/27 10:46:36;;;;;;;7.67;6.97;;;;;;;;;;5071310;28;20403;-81
2021/04/27 10:49:09;;;;;;;10.27;7.17;;;;;;;;;;5071613;28;20426;-79
2021/04/27 10:51:40;;;;;;;7.37;6.67;;;;;;;;;;5071341;28;20585;-79
2021/04/27 10:54:06;;;;;;;10.53;7.40;;;;;;;;;;5071735;28;20410;-80
2021/04/27 10:56:34;;;;;;;6.50;5.90;;;;;;;;;;5072053;28;20455;-80
2021/04/27 10:59:11;;;;;;;6.13;5.53;;;;;;;;;;5071516;28;20458;-75
2021/04/27 11:01:40;;;;;;;6.27;5.67;;;;;;;;;;5071536;28;20429;-84
2021/04/27 11:04:06;;;;;;;6.93;6.23;;;;;;;;;;5070513;28;20602;-81
2021/04/27 11:06:32;;;;;;;7.60;6.27;;;;;;;;;;5073912;28;20402;-76
2021/04/27 11:09:00;;;;;;;9.13;6.17;;;;;;;;;;5075758;28;20414;-78
2021/04/27 11:11:29;;;;;;;11.97;6.80;;;;;;;;;;5082455;28;20987;-79
2021/04/27 11:14:14;;;;;;;9.27;7.80;;;;;;;;;;5075392;28;20418;-78
2021/04/27 11:16:41;;;;;;;7.47;6.77;;;;;;;;;;5075411;28;20414;-83
2021/04/27 11:19:10;;;;;;;11.30;7.93;;;;;;;;;;5075240;28;20452;-81
2021/04/27 11:21:36;;;;;;;8.50;6.40;;;;;;;;;;5074555;28;20811;-78
2021/04/27 11:29:57;;;;;;;9.47;6.90;;;;;;;;;;5074757;28;20416;-78
2021/04/27 11:32:23;;;;;;;9.53;7.80;;;;;;;;;;5074897;28;20437;-80
2021/04/27 11:34:52;;;;;;;7.70;6.90;;;;;;;;;;5074507;28;20418;-80
2021/04/27 11:37:20;;;;;;;7.40;6.70;;;;;;;;;;5074761;28;20464;-78
2021/04/27 11:39:46;;;;;;;11.83;8.00;;;;;;;;;;5074412;28;20483;-78
2021/04/27 11:42:12;;;;;;;11.60;7.50;;;;;;;;;;5074665;28;20489;-80
2021/04/27 11:44:42;;;;;;;8.53;7.40;;;;;;;;;;5075330;28;20422;-78
2021/04/27 11:47:17;;;;;;;10.10;7.70;;;;;;;;;;5074981;28;20434;-81
2021/04/27 11:49:59;;;;;;;8.23;6.30;;;;;;;;;;5074664;28;20450;-79
2021/04/27 11:52:38;;;;;;;6.93;6.23;;;;;;;;;;5074452;28;20481;-80
2021/04/27 11:55:11;;;;;;;8.00;7.13;;;;;;;;;;5074689;28;20458;-81
2021/04/27 11:57:43;;;;;;;7.83;7.03;;;;;;;;;;5075023;28;20406;-81
2021/04/27 12:00:09;;;;;;;7.73;6.57;;;;;;;;;;5074067;28;20492;-78
2021/04/27 12:02:36;;;;;;;7.20;6.23;;;;;;;;;;5073062;28;20473;-80
2021/04/27 12:05:02;;;;;;;7.93;7.13;;;;;;;;;;5074443;28;20402;-77
2021/04/27 12:07:29;;;;;;;7.83;5.97;;;;;;;;;;5074269;28;20490;-79
2021/04/27 12:09:56;;;;;;;7.80;7.00;;;;;;;;;;5074668;28;20402;-78
2021/04/27 12:12:23;;;;;;;8.47;6.60;;;;;;;;;;5074372;28;20488;-78
2021/04/27 12:14:52;;;;;;;10.47;7.83;;;;;;;;;;5074378;28;20409;-77
2021/04/27 12:17:44;;;;;;;9.73;7.97;;;;;;;;;;5073310;28;20497;-80
2021/04/27 12:20:17;;;;;;;8.70;7.63;;;;;;;;;;5072443;28;20441;-77
2021/04/27 12:23:04;;;;;;;9.87;7.87;;;;;;;;;;5073698;28;20553;-78
2021/04/27 12:25:30;;;;;;;8.83;7.57;;;;;;;;;;5031430;28;20455;-79
2021/04/27 12:28:04;;;;;;;10.37;6.60;;;;;;;;;;5031246;28;20423;-79
2021/04/27 12:30:31;;;;;;;9.40;7.20;;;;;;;;;;5030640;28;20432;-81
2021/04/27 12:33:31;;;;;;;10.07;8.63;;;;;;;;;;5031347;28;20450;-79
2021/04/27 12:35:53;;;;;;;12.43;8.37;;;;;;;;;;5028951;28;20440;-78
2021/04/27 12:38:19;;;;;;;7.97;7.03;;;;;;;;;;5030896;28;20431;-81
2021/04/27 12:40:50;;;;;;;8.40;7.53;;;;;;;;;;5014600;28;20517;-72
2021/04/27 12:43:16;;;;;;;9.40;7.80;;;;;;;;;;5031064;28;20517;-75
2021/04/27 12:45:42;;;;;;;9.30;7.23;;;;;;;;;;5031117;28;20424;-78
2021/04/27 12:48:08;;;;;;;11.10;8.40;;;;;;;;;;5031304;28;20487;-79
2021/04/27 12:50:42;;;;;;;9.03;8.03;;;;;;;;;;5030993;28;20427;-79
2021/04/27 12:53:08;;;;;;;9.23;8.43;;;;;;;;;;5030952;28;20451;-77
2021/04/27 12:55:36;;;;;;;12.20;8.30;;;;;;;;;;5014389;28;20428;-74
2021/04/27 12:58:17;;;;;;;10.77;9.67;;;;;;;;;;5031059;28;20416;-76
2021/04/27 13:00:47;;;;;;;9.97;8.27;;;;;;;;;;5030866;28;20890;-76
2021/04/27 13:03:14;;;;;;;9.43;8.07;;;;;;;;;;5063225;28;20466;-73
2021/04/27 13:05:40;;;;;;;9.07;8.10;;;;;;;;;;5072718;28;20426;-73
2021/04/27 13:08:07;;;;;;;8.03;7.23;;;;;;;;;;5072294;28;20429;-75
2021/04/27 13:10:40;;;;;;;8.33;7.50;;;;;;;;;;5072302;28;20465;-73
2021/04/27 13:13:17;;;;;;;9.10;7.60;;;;;;;;;;5072622;28;20406;-74
2021/04/27 13:15:44;;;;;;;8.77;7.43;;;;;;;;;;5072344;28;20442;-73
2021/04/27 13:18:10;;;;;;;12.40;7.50;;;;;;;;;;5072379;28;20410;-72
2021/04/27 13:20:38;;;;;;;10.70;7.63;;;;;;;;;;5072390;28;20505;-73
2021/04/27 13:23:07;;;;;;;11.33;8.23;;;;;;;;;;5076067;28;20470;-72
2021/04/27 13:25:38;;;;;;;9.73;8.23;;;;;;;;;;5074360;28;20441;-75
2021/04/27 13:28:06;;;;;;;11.57;8.73;;;;;;;;;;5072660;28;20806;-72
2021/04/27 13:30:33;;;;;;;8.27;7.37;;;;;;;;;;5071512;28;20406;-76
2021/04/27 13:32:59;;;;;;;10.70;8.37;;;;;;;;;;5072034;28;20452;-74
2021/04/27 13:35:28;;;;;;;8.30;6.80;;;;;;;;;;5072033;28;20402;-77
2021/04/27 13:37:55;;;;;;;10.73;8.50;;;;;;;;;;5071625;28;20406;-74
2021/04/27 13:40:21;;;;;;;11.10;7.80;;;;;;;;;;5071973;28;20990;-74
2021/04/27 13:42:52;;;;;;;9.83;8.73;;;;;;;;;;5071807;28;20466;-74
2021/04/27 13:45:18;;;;;;;9.93;7.63;;;;;;;;;;5072201;28;20800;-73
2021/04/27 13:47:45;;;;;;;9.90;7.73;;;;;;;;;;5072181;28;20756;-77
2021/04/27 13:50:12;;;;;;;10.53;8.03;;;;;;;;;;5071911;28;20456;-79
2021/04/27 13:52:38;;;;;;;9.90;6.90;;;;;;;;;;5071443;28;20432;-73
2021/04/27 13:55:04;;;;;;;8.00;7.23;;;;;;;;;;5071887;28;20534;-73
2021/04/27 14:00:34;;;;;;;8.83;6.80;;;;;;;;;;5071910;28;20865;-76
2021/04/27 14:03:00;;;;;;;8.77;7.07;;;;;;;;;;5071657;28;20469;-78
2021/04/27 14:05:27;;;;;;;8.67;7.87;;;;;;;;;;5071921;28;20410;-73
2021/04/27 14:07:54;;;;;;;9.43;7.97;;;;;;;;;;5071308;28;20505;-73
2021/04/27 14:10:21;;;;;;;8.50;7.60;;;;;;;;;;5071374;28;20452;-72
2021/04/27 14:15:52;;;;;;;10.50;7.57;;;;;;;;;;5071409;28;20520;-73
2021/04/27 14:18:18;;;;;;;9.17;8.27;;;;;;;;;;5071422;28;20425;-72
2021/04/27 14:20:44;;;;;;;12.47;8.10;;;;;;;;;;5071328;28;20402;-73
2021/04/27 14:23:11;;;;;;;8.77;7.97;;;;;;;;;;5069768;28;21049;-72
2021/04/27 14:25:38;;;;;;;10.00;9.00;;;;;;;;;;5071581;28;20506;-73
2021/04/27 14:28:05;;;;;;;9.20;7.50;;;;;;;;;;5071116;28;20410;-71
2021/04/27 14:30:31;;;;;;;10.33;8.50;;;;;;;;;;5071456;28;20810;-73
2021/04/27 14:32:57;;;;;;;8.03;7.23;;;;;;;;;;5071182;28;20784;-73
2021/04/27 14:35:24;;;;;;;9.03;8.13;;;;;;;;;;5070021;28;20951;-74
2021/04/27 14:37:51;;;;;;;13.03;8.10;;;;;;;;;;5071354;28;20426;-72
2021/04/27 14:40:18;;;;;;;10.63;7.60;;;;;;;;;;5072100;28;20778;-73
2021/04/27 14:45:49;;;;;;;8.20;7.40;;;;;;;;;;5074549;28;20436;-73
2021/04/27 14:48:15;;;;;;;9.20;7.23;;;;;;;;;;5074627;28;20418;-76
2021/04/27 14:50:41;;;;;;;12.70;6.97;;;;;;;;;;5075088;28;20478;-73
2021/04/27 14:53:07;;;;;;;9.73;7.00;;;;;;;;;;5074736;28;20414;-75
2021/04/27 14:55:33;;;;;;;8.10;7.30;;;;;;;;;;5075260;28;20823;-77
2021/04/27 15:01:02;;;;;;;7.47;6.77;;;;;;;;;;5074739;28;20930;-72
2021/04/27 15:03:28;;;;;;;8.23;6.27;;;;;;;;;;5074548;28;20458;-73
2021/04/27 15:05:54;;;;;;;8.40;7.60;;;;;;;;;;5074602;28;20426;-74
2021/04/27 15:08:20;;;;;;;7.70;6.90;;;;;;;;;;5074734;28;20437;-76
2021/04/27 15:10:46;;;;;;;12.63;6.87;;;;;;;;;;5074425;28;20465;-75
2021/04/27 15:16:16;;;;;;;6.33;5.07;;;;;;;;;;5074532;28;20448;-72
2021/04/27 15:18:42;;;;;;;7.83;6.80;;;;;;;;;;5074492;28;20468;-73
2021/04/27 15:21:09;;;;;;;9.23;7.33;;;;;;;;;;5074646;28;20418;-73
2021/04/27 15:23:36;;;;;;;11.00;6.67;;;;;;;;;;5074153;28;20912;-73
2021/04/27 15:26:02;;;;;;;8.10;6.97;;;;;;;;;;5075200;28;20417;-86
2021/04/27 15:28:28;;;;;;;7.57;6.77;;;;;;;;;;5074700;28;20410;-79
2021/04/27 15:30:55;;;;;;;7.60;6.60;;;;;;;;;;5074771;28;20418;-84
2021/04/27 15:33:27;;;;;;;10.50;7.80;;;;;;;;;;5077936;28;20434;-84
2021/04/27 15:35:53;;;;;;;7.83;7.00;;;;;;;;;;5090382;28;20748;-79
2021/04/27 15:38:20;;;;;;;8.37;6.10;;;;;;;;;;5077548;28;20417;-79
2021/04/27 15:40:46;;;;;;;7.67;6.97;;;;;;;;;;5076461;28;20422;-85
2021/04/27 15:46:15;;;;;;;11.87;7.00;;;;;;;;;;5082299;28;20468;-84
2021/04/27 15:48:41;;;;;;;7.27;6.57;;;;;;;;;;5079629;28;20414;-77
2021/04/27 15:51:07;;;;;;;8.23;6.80;;;;;;;;;;5073868;28;20877;-74
2021/04/27 15:53:33;;;;;;;7.87;7.17;;;;;;;;;;5072590;28;20489;-81
2021/04/27 15:55:59;;;;;;;9.00;6.70;;;;;;;;;;5073419;28;20841;-73
2021/04/27 16:01:29;;;;;;;9.10;7.10;;;;;;;;;;5073375;28;20440;-78
2021/04/27 16:03:55;;;;;;;7.77;6.60;;;;;;;;;;5073438;28;20469;-73
2021/04/27 16:06:21;;;;;;;10.53;7.00;;;;;;;;;;5073311;28;20833;-75
2021/04/27 16:08:50;;;;;;;6.70;6.10;;;;;;;;;;5073075;28;20475;-74
2021/04/27 16:11:16;;;;;;;7.90;7.10;;;;;;;;;;5073087;28;20561;-77
2021/04/27 16:16:46;;;;;;;7.90;7.10;;;;;;;;;;5073387;28;20448;-76
2021/04/27 16:19:12;;;;;;;15.43;6.97;;;;;;;;;;5074065;28;20414;-76
2021/04/27 16:21:39;;;;;;;8.03;6.73;;;;;;;;;;5073349;28;20778;-73
2021/04/27 16:24:05;;;;;;;7.60;6.70;;;;;;;;;;5073038;28;20496;-74
2021/04/27 16:26:32;;;;;;;6.80;5.67;;;;;;;;;;5071811;28;20437;-75
2021/04/27 16:32:02;;;;;;;7.57;6.73;;;;;;;;;;5072830;28;20462;-77
2021/04/27 16:34:28;;;;;;;7.67;6.27;;;;;;;;;;5072939;28;20476;-73
2021/04/27 16:36:54;;;;;;;8.43;6.83;;;;;;;;;;5072540;28;20432;-73
2021/04/27 16:39:20;;;;;;;7.10;6.37;;;;;;;;;;5072741;28;20769;-74
2021/04/27 16:41:46;;;;;;;7.10;6.50;;;;;;;;;;5072766;28;20438;-75
2021/04/27 16:44:12;;;;;;;8.20;5.77;;;;;;;;;;5073215;28;20793;-76
2021/04/27 16:46:38;;;;;;;6.70;6.07;;;;;;;;;;5073136;28;20422;-72